Time;durP1;ratioP1;P1;durP2;ratioP2;P2;SDS_P1;SDS_P2;PMS_P1;PMS_P2;Temp;Humidity;BMP_temperature;BMP_pressure;BME280_temperature;BME280_humidity;BME280_pressure;Samples;Min_cycle;Max_cycle;Signal;HPM_P1;HPM_P2
2023/05/03 00:03:44;;;;;;;2.33;1.23;;;;;;;;;;20821765;28;20868;-79
2023/05/03 00:13:47;;;;;;;1.43;1.20;;;;;;;;;;20804739;28;20234;-80
2023/05/03 00:23:49;;;;;;;1.60;1.10;;;;;;;;;;20859641;28;20210;-79
2023/05/03 00:33:51;;;;;;;1.97;1.03;;;;;;;;;;20924323;28;20218;-82
2023/05/03 00:43:52;;;;;;;2.80;0.77;;;;;;;;;;20919152;28;20276;-82
2023/05/03 00:53:54;;;;;;;1.63;0.87;;;;;;;;;;20908897;28;20313;-81
2023/05/03 01:03:56;;;;;;;4.47;1.23;;;;;;;;;;20949514;28;20270;-82
2023/05/03 01:14:07;;;;;;;2.50;1.27;;;;;;;;;;20920367;28;20256;-83
2023/05/03 01:24:18;;;;;;;1.83;0.80;;;;;;;;;;20898586;28;20243;-81
2023/05/03 01:34:49;;;;;;;1.97;0.83;;;;;;;;;;20913783;28;20233;-82
2023/05/03 01:44:52;;;;;;;3.43;0.83;;;;;;;;;;20860401;28;20619;-82
2023/05/03 01:54:54;;;;;;;1.33;0.80;;;;;;;;;;20900200;28;20225;-82
2023/05/03 02:04:55;;;;;;;1.80;1.00;;;;;;;;;;20943560;28;20276;-81
2023/05/03 02:14:57;;;;;;;1.80;1.00;;;;;;;;;;20921243;28;20214;-81
2023/05/03 02:24:59;;;;;;;1.50;1.00;;;;;;;;;;20903403;28;20609;-81
2023/05/03 02:35:02;;;;;;;2.30;1.20;;;;;;;;;;20922256;28;20942;-80
2023/05/03 02:45:04;;;;;;;1.80;0.87;;;;;;;;;;20906157;28;20222;-82
2023/05/03 02:55:07;;;;;;;1.90;1.00;;;;;;;;;;20904810;28;20237;-82
2023/05/03 03:05:10;;;;;;;1.83;1.20;;;;;;;;;;20902662;28;20222;-80
2023/05/03 03:15:13;;;;;;;2.13;1.10;;;;;;;;;;20902021;28;20229;-82
2023/05/03 03:25:18;;;;;;;2.63;0.90;;;;;;;;;;20912219;28;20229;-81
2023/05/03 03:35:21;;;;;;;1.73;1.03;;;;;;;;;;20935102;28;20370;-81
2023/05/03 03:45:23;;;;;;;2.20;1.20;;;;;;;;;;20901028;28;20567;-81
2023/05/03 03:55:25;;;;;;;1.30;0.90;;;;;;;;;;20887309;28;20238;-81
2023/05/03 04:05:30;;;;;;;1.80;0.90;;;;;;;;;;20897468;28;20757;-81
2023/05/03 04:15:32;;;;;;;2.33;1.10;;;;;;;;;;20919961;28;20602;-81
2023/05/03 04:25:35;;;;;;;2.17;1.07;;;;;;;;;;20918197;28;20241;-80
2023/05/03 04:35:44;;;;;;;1.87;1.23;;;;;;;;;;20891616;28;20698;-81
2023/05/03 04:45:51;;;;;;;2.93;1.30;;;;;;;;;;20900223;28;20210;-84
2023/05/03 04:55:57;;;;;;;2.87;1.53;;;;;;;;;;20894883;28;20644;-83
2023/05/03 05:05:59;;;;;;;2.57;0.93;;;;;;;;;;20841209;28;20257;-82
2023/05/03 05:16:02;;;;;;;4.03;1.30;;;;;;;;;;20819731;28;20222;-82
2023/05/03 05:26:04;;;;;;;1.60;0.73;;;;;;;;;;20819750;28;20230;-82
2023/05/03 05:36:07;;;;;;;1.80;1.17;;;;;;;;;;20830849;28;20225;-81
2023/05/03 05:46:10;;;;;;;3.27;0.90;;;;;;;;;;20862455;28;20218;-83
2023/05/03 05:56:12;;;;;;;1.53;1.00;;;;;;;;;;20878739;28;20226;-81
2023/05/03 06:06:13;;;;;;;3.00;1.20;;;;;;;;;;20913219;28;20692;-82
2023/05/03 06:16:15;;;;;;;1.57;0.93;;;;;;;;;;20915960;28;20226;-82
2023/05/03 06:26:18;;;;;;;6.30;1.00;;;;;;;;;;20927854;28;20229;-81
2023/05/03 06:36:21;;;;;;;3.47;1.50;;;;;;;;;;20931242;28;20279;-81
2023/05/03 06:46:23;;;;;;;2.70;1.10;;;;;;;;;;20909072;28;20211;-81
2023/05/03 06:56:26;;;;;;;5.37;1.43;;;;;;;;;;20944711;28;20230;-80
2023/05/03 07:06:27;;;;;;;1.43;0.97;;;;;;;;;;20915432;28;20217;-80
2023/05/03 07:16:29;;;;;;;2.50;1.67;;;;;;;;;;20908065;28;20238;-80
2023/05/03 07:26:31;;;;;;;4.00;1.50;;;;;;;;;;20907957;28;20243;-81
2023/05/03 07:36:33;;;;;;;4.83;1.77;;;;;;;;;;20914997;28;20271;-82
2023/05/03 07:46:34;;;;;;;2.80;1.33;;;;;;;;;;20922547;28;20563;-82
2023/05/03 07:56:36;;;;;;;2.20;1.33;;;;;;;;;;20903669;28;20234;-81
2023/05/03 08:06:38;;;;;;;2.77;1.30;;;;;;;;;;20920615;28;20645;-81
2023/05/03 08:16:40;;;;;;;4.63;1.67;;;;;;;;;;20903400;28;20260;-82
2023/05/03 08:26:46;;;;;;;2.47;1.53;;;;;;;;;;20904988;28;20670;-82
2023/05/03 08:36:48;;;;;;;2.73;1.33;;;;;;;;;;20949619;28;20260;-82
2023/05/03 08:46:50;;;;;;;4.60;1.70;;;;;;;;;;20926692;28;20222;-81
2023/05/03 08:56:52;;;;;;;2.93;1.97;;;;;;;;;;20905437;28;20287;-81
2023/05/03 09:07:07;;;;;;;3.20;1.50;;;16.40;99.90;;;;;;20904213;28;20222;-81
2023/05/03 09:17:15;;;;;;;7.13;1.80;;;;;;;;;;20919770;28;20274;-82
2023/05/03 09:27:21;;;;;;;2.80;1.70;;;17.00;99.90;;;;;;20920669;28;20217;-81
2023/05/03 09:37:35;;;;;;;3.47;1.73;;;;;;;;;;20903403;28;20287;-82
2023/05/03 09:47:51;;;;;;;3.00;1.67;;;;;;;;;;20925738;28;20283;-81
2023/05/03 09:57:56;;;;;;;2.83;1.40;;;17.60;99.90;;;;;;20945041;28;20375;-81
2023/05/03 10:08:00;;;;;;;3.17;1.77;;;17.90;99.90;;;;;;20941364;28;20210;-82
2023/05/03 10:18:06;;;;;;;3.03;2.10;;;17.80;99.90;;;;;;20902940;28;20302;-81
2023/05/03 10:28:08;;;;;;;2.40;1.70;;;18.30;99.90;;;;;;20898981;28;20248;-81
2023/05/03 10:38:14;;;;;;;4.33;1.87;;;18.30;99.90;;;;;;20904281;28;20226;-82
2023/05/03 10:48:19;;;;;;;2.10;1.57;;;18.70;99.90;;;;;;20897799;28;20280;-81
2023/05/03 10:58:21;;;;;;;2.33;1.60;;;;;;;;;;20913454;28;20230;-82
2023/05/03 11:08:28;;;;;;;4.80;2.00;;;19.10;99.90;;;;;;20912583;28;20232;-81
2023/05/03 11:18:31;;;;;;;1.50;1.10;;;19.70;99.90;;;;;;20898064;28;20234;-81
2023/05/03 11:28:33;;;;;;;2.10;1.50;;;;;;;;;;20912047;28;20233;-82
2023/05/03 11:38:39;;;;;;;2.00;1.37;;;;;;;;;;20919044;28;20318;-81
2023/05/03 11:48:42;;;;;;;2.63;1.90;;;;;;;;;;20937572;28;20241;-82
2023/05/03 11:58:51;;;;;;;2.30;1.50;;;;;;;;;;20898628;28;20237;-81
2023/05/03 12:08:53;;;;;;;2.40;1.60;;;;;;;;;;20922230;28;20218;-82
2023/05/03 12:19:01;;;;;;;3.20;1.30;;;;;;;;;;20976347;28;20381;-81
2023/05/03 12:29:03;;;;;;;3.17;1.40;;;;;;;;;;20925351;28;20558;-82
2023/05/03 12:39:07;;;;;;;2.00;1.30;;;;;;;;;;20914242;28;20315;-82
2023/05/03 12:49:09;;;;;;;1.83;1.20;;;;;;;;;;20947241;28;20227;-82
2023/05/03 12:59:11;;;;;;;2.40;1.40;;;;;;;;;;20908102;28;20312;-82
2023/05/03 13:09:15;;;;;;;2.67;1.50;;;;;;;;;;20923590;28;20228;-82
2023/05/03 13:19:17;;;;;;;4.27;1.40;;;22.10;99.90;;;;;;20927364;28;20232;-81
2023/05/03 13:29:20;;;;;;;1.90;1.20;;;;;;;;;;20944402;28;20274;-82
2023/05/03 13:39:23;;;;;;;1.63;0.93;;;;;;;;;;20909798;28;20295;-81
2023/05/03 13:49:24;;;;;;;1.53;1.07;;;;;;;;;;20936211;28;20229;-81
2023/05/03 13:59:26;;;;;;;1.70;1.10;;;;;;;;;;20947584;28;20232;-83
2023/05/03 14:09:28;;;;;;;1.70;1.10;;;22.00;99.90;;;;;;20914329;28;20219;-81
2023/05/03 14:19:33;;;;;;;3.00;1.70;;;;;;;;;;20894662;28;20294;-81
2023/05/03 14:29:34;;;;;;;2.20;1.17;;;;;;;;;;20913225;28;20278;-81
2023/05/03 14:39:37;;;;;;;4.17;1.10;;;;;;;;;;20872124;28;20290;-81
2023/05/03 14:49:41;;;;;;;1.67;1.00;;;;;;;;;;20818849;28;20228;-81
2023/05/03 14:59:44;;;;;;;2.30;1.17;;;;;;;;;;20918934;28;20234;-82
2023/05/03 15:09:46;;;;;;;2.17;1.00;;;;;;;;;;20951365;28;20694;-82
2023/05/03 15:19:48;;;;;;;1.93;0.90;;;;;;;;;;20968042;28;20224;-82
2023/05/03 15:29:50;;;;;;;1.43;0.80;;;;;;;;;;20952840;28;20222;-82
2023/05/03 15:39:51;;;;;;;1.43;0.80;;;;;;;;;;20967684;28;20228;-82
2023/05/03 15:49:53;;;;;;;2.50;0.77;;;;;;;;;;20971960;28;20253;-82
2023/05/03 15:59:55;;;;;;;2.10;0.87;;;;;;;;;;20979701;28;20230;-82
2023/05/03 16:09:56;;;;;;;2.10;0.90;;;;;;;;;;20965754;28;20279;-82
2023/05/03 16:19:58;;;;;;;1.83;1.00;;;;;;;;;;20892575;28;20771;-81
2023/05/03 16:30:00;;;;;;;3.07;0.67;;;;;;;;;;20909597;28;20282;-82
2023/05/03 16:40:11;;;;;;;2.70;0.90;;;21.80;99.90;;;;;;20952092;28;20236;-81
2023/05/03 16:50:14;;;;;;;1.73;0.87;;;;;;;;;;20953888;28;20228;-81
2023/05/03 17:00:16;;;;;;;3.00;0.60;;;;;;;;;;20924093;28;20926;-81
2023/05/03 17:10:19;;;;;;;0.70;0.50;;;;;;;;;;20906079;28;20222;-80
2023/05/03 17:20:24;;;;;;;0.90;0.50;;;;;;;;;;20873633;28;20267;-81
2023/05/03 17:30:27;;;;;;;0.80;0.53;;;;;;;;;;20863616;28;20232;-82
2023/05/03 17:40:28;;;;;;;0.50;0.40;;;;;;;;;;20843562;28;20237;-80
2023/05/03 17:50:30;;;;;;;1.10;0.57;;;;;;;;;;20864225;28;20213;-81
2023/05/03 18:00:32;;;;;;;3.90;1.13;;;;;;;;;;20974368;28;20292;-81
2023/05/03 18:10:34;;;;;;;1.03;0.40;;;;;;;;;;20888440;28;20215;-81
2023/05/03 18:20:36;;;;;;;0.50;0.37;;;;;;;;;;20927342;28;20227;-83
2023/05/03 18:30:38;;;;;;;0.40;0.40;;;;;;;;;;20898167;28;20219;-82
2023/05/03 18:40:41;;;;;;;0.67;0.50;;;;;;;;;;20912639;28;20342;-82
2023/05/03 18:50:44;;;;;;;0.83;0.50;;;;;;;;;;20875312;28;20728;-83
2023/05/03 19:00:46;;;;;;;1.47;0.50;;;;;;;;;;20860353;28;20236;-82
2023/05/03 19:10:48;;;;;;;1.00;0.60;;;;;;;;;;20925783;28;20584;-83
2023/05/03 19:20:51;;;;;;;1.00;0.60;;;;;;;;;;20953337;28;20327;-82
2023/05/03 19:30:53;;;;;;;0.23;0.23;;;;;;;;;;20997170;28;20761;-82
2023/05/03 19:40:58;;;;;;;0.60;0.40;;;;;;;;;;20936330;28;20267;-82
2023/05/03 19:51:00;;;;;;;0.80;0.50;;;;;;;;;;20996999;28;20238;-82
2023/05/03 20:01:02;;;;;;;2.87;0.80;;;;;;;;;;20891576;28;20648;-83
2023/05/03 20:11:03;;;;;;;1.90;0.70;;;;;;;;;;20987886;28;20218;-82
2023/05/03 20:21:05;;;;;;;1.20;0.50;;;;;;;;;;20895794;28;20228;-83
2023/05/03 20:31:09;;;;;;;0.50;0.40;;;;;;;;;;20841713;28;20245;-83
2023/05/03 20:41:11;;;;;;;0.50;0.50;;;;;;;;;;20839142;28;20724;-82
2023/05/03 20:51:19;;;;;;;0.90;0.60;;;;;;;;;;20910623;28;20208;-84
2023/05/03 21:01:38;;;;;;;1.20;0.50;;;;;;;;;;21026573;28;20252;-86
2023/05/03 21:11:43;;;;;;;3.83;0.80;;;;;;;;;;20931645;22;20264;-67
2023/05/03 21:21:45;;;;;;;4.37;1.00;;;;;;;;;;20818249;28;20265;-67
2023/05/03 21:31:47;;;;;;;1.67;0.73;;;;;;;;;;20796273;28;20240;-67
2023/05/03 21:41:49;;;;;;;2.20;1.00;;;;;;;;;;20880142;28;20221;-67
2023/05/03 21:51:51;;;;;;;1.10;0.67;;;;;;;;;;20875199;28;20267;-67
2023/05/03 22:01:53;;;;;;;1.30;0.87;;;;;;;;;;20858026;28;20824;-67
2023/05/03 22:11:54;;;;;;;1.17;0.80;;;;;;;;;;20845826;28;20225;-67
2023/05/03 22:21:56;;;;;;;1.07;0.80;;;;;;;;;;20906251;28;20209;-67
2023/05/03 22:31:58;;;;;;;1.47;0.80;;;;;;;;;;20889232;28;20209;-67
2023/05/03 22:42:01;;;;;;;1.17;0.73;;;;;;;;;;20904295;28;20230;-68
2023/05/03 22:52:03;;;;;;;1.77;0.77;;;;;;;;;;20825918;28;20218;-67
2023/05/03 23:02:04;;;;;;;0.77;0.50;;;;;;;;;;20809875;28;20623;-67
2023/05/03 23:12:06;;;;;;;2.30;0.90;;;;;;;;;;20869544;28;20202;-67
2023/05/03 23:22:08;;;;;;;1.27;0.60;;;;;;;;;;20869859;28;20676;-67
2023/05/03 23:32:10;;;;;;;1.70;0.77;;;;;;;;;;20869643;28;20193;-67
2023/05/03 23:42:12;;;;;;;1.50;0.70;;;;;;;;;;20885986;28;20218;-68
2023/05/03 23:52:15;;;;;;;1.17;0.67;;;;;;;;;;20869128;28;20221;-67
